aviador You're here:

KQBF Decoded Metar

in
Report Time2017-06-25 19:56:00
UTC Time2017-06-25 20:43:23
Flight Rules vfr VFR
WindCalm
Visibility9999 m
Phenomena:N/A
Clouds:Scattered 160 Hf
Expected CloudBase > 2,000 ft AGL from Temp-Dew spread
CeilingNone
Temp26°C
Dew Point21°C (74% RH)
QNH1014 hPa
Raw Report
METAR KQBF 251956Z AUTO 00000KT 9999 SCT160 26/21 A2994 RMK AO2 SLPNO
WND DATA ESTMD T02590211=

Extra information for KQBF:More info

Social comments